createdAt,value
2022-08-11T00:00:35.404Z,18.72
2022-08-11T00:10:38.345Z,18.83
2022-08-11T00:20:44.116Z,18.69
2022-08-11T00:30:46.872Z,18.52
2022-08-11T00:41:14.270Z,18.44
2022-08-11T00:52:04.841Z,18.16
2022-08-11T01:02:09.747Z,18.11
2022-08-11T01:12:24.480Z,18.00
2022-08-11T01:23:02.731Z,17.84
2022-08-11T01:33:33.126Z,17.72
2022-08-11T01:44:16.987Z,17.65
2022-08-11T01:54:32.043Z,17.70
2022-08-11T02:05:07.275Z,17.65
2022-08-11T02:15:15.885Z,17.61
2022-08-11T02:25:49.506Z,17.81
2022-08-11T02:36:33.722Z,17.82
2022-08-11T02:47:19.357Z,17.61
2022-08-11T02:58:04.076Z,17.41
2022-08-11T03:08:14.627Z,17.22
2022-08-11T03:18:27.156Z,17.12
2022-08-11T03:28:38.301Z,17.11
2022-08-11T03:39:09.222Z,17.06
2022-08-11T03:49:49.719Z,17.08
2022-08-11T04:00:14.303Z,17.13
2022-08-11T04:10:35.891Z,17.20
2022-08-11T04:21:29.071Z,17.39
2022-08-11T04:32:01.484Z,17.75
2022-08-11T04:42:52.331Z,18.09
2022-08-11T04:53:36.752Z,18.48
2022-08-11T05:04:05.308Z,18.58
2022-08-11T05:14:32.659Z,19.09
2022-08-11T05:26:42.806Z,19.54
2022-08-11T05:36:05.850Z,20.01
2022-08-11T05:46:26.150Z,20.32
2022-08-11T05:56:28.853Z,20.61
2022-08-11T06:06:31.097Z,21.09
2022-08-11T06:16:35.355Z,21.67
2022-08-11T06:27:01.533Z,21.77
2022-08-11T06:37:36.635Z,22.13
2022-08-11T06:47:47.754Z,22.20
2022-08-11T06:58:08.468Z,22.62
2022-08-11T07:08:47.177Z,22.65
2022-08-11T07:19:11.028Z,23.54
2022-08-11T07:29:21.491Z,23.86
2022-08-11T07:39:26.695Z,24.05
2022-08-11T07:49:48.971Z,24.35
2022-08-11T08:00:10.254Z,25.02
2022-08-11T08:10:31.933Z,25.30
2022-08-11T08:20:46.343Z,25.90
2022-08-11T08:30:55.394Z,26.48
2022-08-11T08:40:57.926Z,26.82
2022-08-11T08:52:33.238Z,27.35
2022-08-11T09:02:05.825Z,27.13
2022-08-11T09:12:08.374Z,27.69
2022-08-11T09:22:29.098Z,28.32
2022-08-11T09:32:31.680Z,29.91
2022-08-11T09:42:52.526Z,30.09
2022-08-11T09:53:35.051Z,28.75
2022-08-11T10:03:21.963Z,32.51
2022-08-11T10:14:30.126Z,31.77
2022-08-11T10:24:18.440Z,29.94
2022-08-11T10:34:21.024Z,30.53
2022-08-11T10:44:43.843Z,29.82
2022-08-11T10:55:04.729Z,32.03
2022-08-11T11:05:26.848Z,30.20
2022-08-11T11:15:50.814Z,32.67
2022-08-11T11:26:38.479Z,31.22
2022-08-11T11:36:58.700Z,30.35
2022-08-11T11:47:02.101Z,29.28
2022-08-11T11:57:23.398Z,29.28
2022-08-11T12:07:44.684Z,35.36
2022-08-11T12:17:52.869Z,39.05
2022-08-11T12:27:55.672Z,37.34
2022-08-11T12:38:10.896Z,33.12
2022-08-11T12:49:01.104Z,31.38
2022-08-11T12:59:22.457Z,39.10
2022-08-11T13:09:26.679Z,36.07
2022-08-11T13:19:29.991Z,34.66
2022-08-11T13:29:32.026Z,34.06
2022-08-11T13:39:37.177Z,36.90
2022-08-11T13:49:41.283Z,33.08
2022-08-11T13:59:55.335Z,38.10
2022-08-11T14:10:00.616Z,35.57
2022-08-11T14:20:38.109Z,33.80
2022-08-11T14:31:01.148Z,34.62
2022-08-11T14:41:22.921Z,34.96
2022-08-11T14:51:26.486Z,33.71
2022-08-11T15:01:48.215Z,33.10
2022-08-11T15:12:32.579Z,32.15
2022-08-11T15:22:55.074Z,30.86
2022-08-11T15:33:16.443Z,29.43
2022-08-11T15:43:48.487Z,28.29
2022-08-11T15:53:58.306Z,27.18
2022-08-11T16:04:14.404Z,26.44
2022-08-11T16:14:55.032Z,25.84
2022-08-11T16:27:01.683Z,25.63
2022-08-11T16:35:42.935Z,25.48
2022-08-11T16:46:04.621Z,25.43
2022-08-11T16:56:09.488Z,25.46
2022-08-11T17:06:30.754Z,25.17
2022-08-11T17:16:39.940Z,24.96
2022-08-11T17:26:55.764Z,24.45
2022-08-11T17:37:00.260Z,23.75
2022-08-11T17:47:24.554Z,23.15
2022-08-11T17:57:47.927Z,22.56
2022-08-11T18:08:13.283Z,22.45
2022-08-11T18:18:33.783Z,21.96
2022-08-11T18:29:02.978Z,22.25
2022-08-11T18:39:30.999Z,21.87
2022-08-11T18:50:03.751Z,21.75
2022-08-11T19:00:28.117Z,21.62
2022-08-11T19:10:49.487Z,21.62
2022-08-11T19:21:25.255Z,21.58
2022-08-11T19:31:47.078Z,21.40
2022-08-11T19:42:08.034Z,21.31
2022-08-11T19:52:29.705Z,21.25
2022-08-11T20:02:49.886Z,20.94
2022-08-11T20:13:12.178Z,20.65
2022-08-11T20:23:44.210Z,20.54
2022-08-11T20:34:12.738Z,20.25
2022-08-11T20:44:35.421Z,19.83
2022-08-11T20:54:58.702Z,19.57
2022-08-11T21:06:08.959Z,19.42
2022-08-11T21:16:06.197Z,19.22
2022-08-11T21:26:27.743Z,19.14
2022-08-11T21:36:49.173Z,18.89
2022-08-11T21:47:11.268Z,18.61
2022-08-11T21:57:33.489Z,18.53
2022-08-11T22:07:57.174Z,18.64
2022-08-11T22:18:21.237Z,18.63
2022-08-11T22:28:48.100Z,18.54
2022-08-11T22:39:10.149Z,18.49
2022-08-11T22:49:56.178Z,18.51
2022-08-11T23:00:12.699Z,18.63
2022-08-11T23:10:33.025Z,18.61
2022-08-11T23:21:00.951Z,18.49
2022-08-11T23:31:22.316Z,18.43
2022-08-11T23:41:42.666Z,18.46
2022-08-11T23:52:04.041Z,18.43
